sensor_id;sensor_type;location;lat;lon;timestamp;P1;durP1;ratioP1;P2;durP2;ratioP2
66607;SDS011;53462;39.616;8.824;2022-12-18T00:00:59;16.38;;;10.48;;
66607;SDS011;53462;39.616;8.824;2022-12-18T00:03:25;14.00;;;9.27;;
66607;SDS011;53462;39.616;8.824;2022-12-18T00:05:51;13.85;;;8.88;;
66607;SDS011;53462;39.616;8.824;2022-12-18T00:08:18;12.63;;;7.93;;
66607;SDS011;53462;39.616;8.824;2022-12-18T00:10:44;11.75;;;7.18;;
66607;SDS011;53462;39.616;8.824;2022-12-18T00:13:11;12.43;;;7.60;;
66607;SDS011;53462;39.616;8.824;2022-12-18T00:15:38;13.07;;;7.90;;
66607;SDS011;53462;39.616;8.824;2022-12-18T00:18:04;10.88;;;7.00;;
66607;SDS011;53462;39.616;8.824;2022-12-18T00:20:31;12.18;;;7.20;;
66607;SDS011;53462;39.616;8.824;2022-12-18T00:23:04;10.45;;;6.28;;
66607;SDS011;53462;39.616;8.824;2022-12-18T00:25:35;9.52;;;5.68;;
66607;SDS011;53462;39.616;8.824;2022-12-18T00:28:02;10.00;;;5.75;;
66607;SDS011;53462;39.616;8.824;2022-12-18T00:30:28;8.80;;;5.72;;
66607;SDS011;53462;39.616;8.824;2022-12-18T00:32:55;8.20;;;4.88;;
66607;SDS011;53462;39.616;8.824;2022-12-18T00:35:24;7.88;;;4.60;;
66607;SDS011;53462;39.616;8.824;2022-12-18T00:37:51;7.97;;;4.47;;
66607;SDS011;53462;39.616;8.824;2022-12-18T00:40:17;9.65;;;4.65;;
66607;SDS011;53462;39.616;8.824;2022-12-18T00:42:43;7.53;;;5.38;;
66607;SDS011;53462;39.616;8.824;2022-12-18T00:45:22;7.60;;;4.68;;
66607;SDS011;53462;39.616;8.824;2022-12-18T00:47:49;9.52;;;5.45;;
66607;SDS011;53462;39.616;8.824;2022-12-18T00:50:15;6.95;;;5.00;;
66607;SDS011;53462;39.616;8.824;2022-12-18T00:52:41;6.75;;;4.43;;
66607;SDS011;53462;39.616;8.824;2022-12-18T00:55:08;8.40;;;4.22;;
66607;SDS011;53462;39.616;8.824;2022-12-18T00:57:34;8.43;;;4.20;;
66607;SDS011;53462;39.616;8.824;2022-12-18T01:00:00;5.85;;;3.70;;
66607;SDS011;53462;39.616;8.824;2022-12-18T01:02:26;5.68;;;3.35;;
66607;SDS011;53462;39.616;8.824;2022-12-18T01:04:52;5.50;;;3.65;;
66607;SDS011;53462;39.616;8.824;2022-12-18T01:07:18;9.13;;;5.32;;
66607;SDS011;53462;39.616;8.824;2022-12-18T01:09:44;10.68;;;6.15;;
66607;SDS011;53462;39.616;8.824;2022-12-18T01:12:10;9.15;;;6.10;;
66607;SDS011;53462;39.616;8.824;2022-12-18T01:14:36;10.77;;;6.20;;
66607;SDS011;53462;39.616;8.824;2022-12-18T01:17:03;11.48;;;6.13;;
66607;SDS011;53462;39.616;8.824;2022-12-18T01:19:31;9.30;;;5.80;;
66607;SDS011;53462;39.616;8.824;2022-12-18T01:21:57;13.68;;;8.05;;
66607;SDS011;53462;39.616;8.824;2022-12-18T01:24:23;20.25;;;9.20;;
66607;SDS011;53462;39.616;8.824;2022-12-18T01:26:49;20.35;;;10.63;;
66607;SDS011;53462;39.616;8.824;2022-12-18T01:29:15;30.83;;;14.55;;
66607;SDS011;53462;39.616;8.824;2022-12-18T01:31:41;17.75;;;9.23;;
66607;SDS011;53462;39.616;8.824;2022-12-18T01:34:08;15.52;;;8.75;;
66607;SDS011;53462;39.616;8.824;2022-12-18T01:36:34;17.92;;;9.80;;
66607;SDS011;53462;39.616;8.824;2022-12-18T01:39:03;11.40;;;6.97;;
66607;SDS011;53462;39.616;8.824;2022-12-18T01:41:31;13.02;;;6.68;;
66607;SDS011;53462;39.616;8.824;2022-12-18T01:50:10;12.17;;;6.70;;
66607;SDS011;53462;39.616;8.824;2022-12-18T01:52:43;11.57;;;6.38;;
66607;SDS011;53462;39.616;8.824;2022-12-18T01:55:13;10.15;;;5.28;;
66607;SDS011;53462;39.616;8.824;2022-12-18T01:57:43;10.98;;;6.30;;
66607;SDS011;53462;39.616;8.824;2022-12-18T02:00:11;12.25;;;5.75;;
66607;SDS011;53462;39.616;8.824;2022-12-18T02:02:42;11.43;;;5.05;;
66607;SDS011;53462;39.616;8.824;2022-12-18T02:05:11;8.13;;;4.30;;
66607;SDS011;53462;39.616;8.824;2022-12-18T02:12:53;6.95;;;4.60;;
66607;SDS011;53462;39.616;8.824;2022-12-18T02:18:38;7.70;;;4.75;;
66607;SDS011;53462;39.616;8.824;2022-12-18T02:21:09;6.88;;;4.13;;
66607;SDS011;53462;39.616;8.824;2022-12-18T02:26:56;6.50;;;4.00;;
66607;SDS011;53462;39.616;8.824;2022-12-18T02:29:29;8.25;;;3.90;;
66607;SDS011;53462;39.616;8.824;2022-12-18T02:32:04;6.43;;;3.60;;
66607;SDS011;53462;39.616;8.824;2022-12-18T02:34:36;4.78;;;2.90;;
66607;SDS011;53462;39.616;8.824;2022-12-18T02:37:08;7.47;;;3.03;;
66607;SDS011;53462;39.616;8.824;2022-12-18T02:39:38;6.78;;;3.95;;
66607;SDS011;53462;39.616;8.824;2022-12-18T02:42:09;7.97;;;3.60;;
66607;SDS011;53462;39.616;8.824;2022-12-18T02:44:44;7.88;;;4.38;;
66607;SDS011;53462;39.616;8.824;2022-12-18T02:47:18;6.03;;;4.38;;
66607;SDS011;53462;39.616;8.824;2022-12-18T02:58:28;7.03;;;2.95;;
66607;SDS011;53462;39.616;8.824;2022-12-18T03:03:41;6.05;;;2.60;;
66607;SDS011;53462;39.616;8.824;2022-12-18T03:06:23;6.40;;;2.40;;
66607;SDS011;53462;39.616;8.824;2022-12-18T03:08:59;8.65;;;2.67;;
66607;SDS011;53462;39.616;8.824;2022-12-18T03:11:34;5.45;;;2.65;;
66607;SDS011;53462;39.616;8.824;2022-12-18T03:14:25;2.95;;;2.40;;
66607;SDS011;53462;39.616;8.824;2022-12-18T03:16:56;5.65;;;3.00;;
66607;SDS011;53462;39.616;8.824;2022-12-18T03:19:27;4.90;;;2.28;;
66607;SDS011;53462;39.616;8.824;2022-12-18T03:21:58;3.55;;;1.80;;
66607;SDS011;53462;39.616;8.824;2022-12-18T03:24:34;3.42;;;1.90;;
66607;SDS011;53462;39.616;8.824;2022-12-18T03:27:05;2.47;;;1.80;;
66607;SDS011;53462;39.616;8.824;2022-12-18T03:29:42;4.47;;;1.90;;
66607;SDS011;53462;39.616;8.824;2022-12-18T03:32:16;4.57;;;2.03;;
66607;SDS011;53462;39.616;8.824;2022-12-18T03:34:49;6.03;;;1.90;;
66607;SDS011;53462;39.616;8.824;2022-12-18T03:37:21;5.70;;;2.90;;
66607;SDS011;53462;39.616;8.824;2022-12-18T03:39:47;5.18;;;2.33;;
66607;SDS011;53462;39.616;8.824;2022-12-18T03:42:23;2.03;;;1.50;;
66607;SDS011;53462;39.616;8.824;2022-12-18T03:45:13;2.45;;;1.60;;
66607;SDS011;53462;39.616;8.824;2022-12-18T03:48:08;2.63;;;1.90;;
66607;SDS011;53462;39.616;8.824;2022-12-18T03:53:23;3.60;;;2.50;;
66607;SDS011;53462;39.616;8.824;2022-12-18T03:56:00;3.75;;;2.20;;
66607;SDS011;53462;39.616;8.824;2022-12-18T03:58:34;3.45;;;1.98;;
66607;SDS011;53462;39.616;8.824;2022-12-18T04:01:17;2.93;;;1.80;;
66607;SDS011;53462;39.616;8.824;2022-12-18T04:03:47;3.92;;;2.13;;
66607;SDS011;53462;39.616;8.824;2022-12-18T04:06:16;2.58;;;1.70;;
66607;SDS011;53462;39.616;8.824;2022-12-18T04:08:43;3.00;;;2.05;;
66607;SDS011;53462;39.616;8.824;2022-12-18T04:11:14;2.50;;;1.80;;
66607;SDS011;53462;39.616;8.824;2022-12-18T04:13:43;3.20;;;2.30;;
66607;SDS011;53462;39.616;8.824;2022-12-18T04:16:17;4.72;;;2.38;;
66607;SDS011;53462;39.616;8.824;2022-12-18T04:18:44;3.35;;;2.20;;
66607;SDS011;53462;39.616;8.824;2022-12-18T04:21:11;7.55;;;2.50;;
66607;SDS011;53462;39.616;8.824;2022-12-18T04:23:37;2.70;;;1.80;;
66607;SDS011;53462;39.616;8.824;2022-12-18T04:26:03;2.47;;;1.55;;
66607;SDS011;53462;39.616;8.824;2022-12-18T04:28:49;2.45;;;1.85;;
66607;SDS011;53462;39.616;8.824;2022-12-18T04:31:15;2.55;;;1.95;;
66607;SDS011;53462;39.616;8.824;2022-12-18T04:33:41;2.65;;;1.92;;
66607;SDS011;53462;39.616;8.824;2022-12-18T04:36:08;2.95;;;1.90;;
66607;SDS011;53462;39.616;8.824;2022-12-18T04:38:34;4.90;;;1.92;;
66607;SDS011;53462;39.616;8.824;2022-12-18T04:41:06;3.47;;;2.20;;
66607;SDS011;53462;39.616;8.824;2022-12-18T04:43:32;4.47;;;1.92;;
66607;SDS011;53462;39.616;8.824;2022-12-18T04:46:07;4.85;;;2.25;;
66607;SDS011;53462;39.616;8.824;2022-12-18T04:48:34;3.50;;;2.13;;
66607;SDS011;53462;39.616;8.824;2022-12-18T04:51:01;4.38;;;2.25;;
66607;SDS011;53462;39.616;8.824;2022-12-18T04:53:27;3.00;;;2.38;;
66607;SDS011;53462;39.616;8.824;2022-12-18T04:56:09;4.47;;;2.60;;
66607;SDS011;53462;39.616;8.824;2022-12-18T04:58:37;6.85;;;2.38;;
66607;SDS011;53462;39.616;8.824;2022-12-18T05:01:04;4.55;;;2.83;;
66607;SDS011;53462;39.616;8.824;2022-12-18T05:03:30;7.10;;;2.90;;
66607;SDS011;53462;39.616;8.824;2022-12-18T05:05:56;3.83;;;2.60;;
66607;SDS011;53462;39.616;8.824;2022-12-18T05:08:22;4.20;;;2.40;;
66607;SDS011;53462;39.616;8.824;2022-12-18T05:10:48;3.70;;;2.50;;
66607;SDS011;53462;39.616;8.824;2022-12-18T05:13:14;8.60;;;3.00;;
66607;SDS011;53462;39.616;8.824;2022-12-18T05:15:40;7.95;;;3.65;;
66607;SDS011;53462;39.616;8.824;2022-12-18T05:18:07;4.68;;;2.45;;
66607;SDS011;53462;39.616;8.824;2022-12-18T05:20:33;3.25;;;2.05;;
66607;SDS011;53462;39.616;8.824;2022-12-18T05:22:59;3.83;;;2.20;;
66607;SDS011;53462;39.616;8.824;2022-12-18T05:25:24;4.40;;;2.35;;
66607;SDS011;53462;39.616;8.824;2022-12-18T05:27:50;4.28;;;2.33;;
66607;SDS011;53462;39.616;8.824;2022-12-18T05:30:16;5.05;;;2.40;;
66607;SDS011;53462;39.616;8.824;2022-12-18T05:32:42;5.05;;;2.72;;
66607;SDS011;53462;39.616;8.824;2022-12-18T05:35:09;2.80;;;2.08;;
66607;SDS011;53462;39.616;8.824;2022-12-18T05:37:35;3.40;;;2.05;;
66607;SDS011;53462;39.616;8.824;2022-12-18T05:40:02;4.13;;;2.13;;
66607;SDS011;53462;39.616;8.824;2022-12-18T05:42:30;3.28;;;2.20;;
66607;SDS011;53462;39.616;8.824;2022-12-18T05:44:55;3.60;;;1.98;;
66607;SDS011;53462;39.616;8.824;2022-12-18T05:47:21;3.85;;;1.95;;
66607;SDS011;53462;39.616;8.824;2022-12-18T05:49:47;5.82;;;2.10;;
66607;SDS011;53462;39.616;8.824;2022-12-18T05:52:13;4.70;;;2.30;;
66607;SDS011;53462;39.616;8.824;2022-12-18T05:54:39;4.25;;;2.00;;
66607;SDS011;53462;39.616;8.824;2022-12-18T05:57:05;5.68;;;2.33;;
66607;SDS011;53462;39.616;8.824;2022-12-18T05:59:31;4.55;;;1.88;;
66607;SDS011;53462;39.616;8.824;2022-12-18T06:01:57;3.55;;;1.98;;
66607;SDS011;53462;39.616;8.824;2022-12-18T06:04:23;3.88;;;2.47;;
66607;SDS011;53462;39.616;8.824;2022-12-18T06:06:49;4.57;;;2.45;;
66607;SDS011;53462;39.616;8.824;2022-12-18T06:09:15;4.45;;;2.55;;
66607;SDS011;53462;39.616;8.824;2022-12-18T06:11:41;4.75;;;2.00;;
66607;SDS011;53462;39.616;8.824;2022-12-18T06:14:06;3.45;;;1.88;;
66607;SDS011;53462;39.616;8.824;2022-12-18T06:16:34;3.28;;;1.70;;
66607;SDS011;53462;39.616;8.824;2022-12-18T06:19:02;5.75;;;2.28;;
66607;SDS011;53462;39.616;8.824;2022-12-18T06:21:30;3.63;;;2.50;;
66607;SDS011;53462;39.616;8.824;2022-12-18T06:23:56;5.63;;;2.80;;
66607;SDS011;53462;39.616;8.824;2022-12-18T06:26:23;5.47;;;2.80;;
66607;SDS011;53462;39.616;8.824;2022-12-18T06:28:49;3.92;;;2.85;;
66607;SDS011;53462;39.616;8.824;2022-12-18T06:31:15;4.13;;;3.17;;
66607;SDS011;53462;39.616;8.824;2022-12-18T06:33:40;7.20;;;2.10;;
66607;SDS011;53462;39.616;8.824;2022-12-18T06:36:07;5.00;;;2.40;;
66607;SDS011;53462;39.616;8.824;2022-12-18T06:38:36;4.28;;;2.63;;
66607;SDS011;53462;39.616;8.824;2022-12-18T06:41:10;4.38;;;3.25;;
66607;SDS011;53462;39.616;8.824;2022-12-18T06:43:38;11.88;;;7.25;;
66607;SDS011;53462;39.616;8.824;2022-12-18T06:46:04;12.43;;;4.90;;
66607;SDS011;53462;39.616;8.824;2022-12-18T06:48:31;8.10;;;5.18;;
66607;SDS011;53462;39.616;8.824;2022-12-18T06:50:57;7.22;;;4.63;;
66607;SDS011;53462;39.616;8.824;2022-12-18T06:53:23;9.20;;;5.20;;
66607;SDS011;53462;39.616;8.824;2022-12-18T06:55:49;9.02;;;4.55;;
66607;SDS011;53462;39.616;8.824;2022-12-18T06:58:15;10.23;;;5.05;;
66607;SDS011;53462;39.616;8.824;2022-12-18T07:00:41;11.88;;;6.65;;
66607;SDS011;53462;39.616;8.824;2022-12-18T07:03:07;8.82;;;5.70;;
66607;SDS011;53462;39.616;8.824;2022-12-18T07:05:33;10.45;;;5.45;;
66607;SDS011;53462;39.616;8.824;2022-12-18T07:07:59;10.63;;;6.40;;
66607;SDS011;53462;39.616;8.824;2022-12-18T07:10:25;10.63;;;6.78;;
66607;SDS011;53462;39.616;8.824;2022-12-18T07:12:51;12.95;;;6.75;;
66607;SDS011;53462;39.616;8.824;2022-12-18T07:15:17;14.25;;;8.00;;
66607;SDS011;53462;39.616;8.824;2022-12-18T07:17:43;12.60;;;7.45;;
66607;SDS011;53462;39.616;8.824;2022-12-18T07:20:09;32.65;;;19.33;;
66607;SDS011;53462;39.616;8.824;2022-12-18T07:22:35;26.23;;;12.90;;
66607;SDS011;53462;39.616;8.824;2022-12-18T07:25:01;11.32;;;6.90;;
66607;SDS011;53462;39.616;8.824;2022-12-18T07:27:27;13.35;;;6.90;;
66607;SDS011;53462;39.616;8.824;2022-12-18T07:29:53;11.60;;;6.30;;
66607;SDS011;53462;39.616;8.824;2022-12-18T07:32:20;9.32;;;5.60;;
66607;SDS011;53462;39.616;8.824;2022-12-18T07:34:46;12.32;;;5.70;;
66607;SDS011;53462;39.616;8.824;2022-12-18T07:37:11;14.68;;;10.05;;
66607;SDS011;53462;39.616;8.824;2022-12-18T07:39:37;15.63;;;10.07;;
66607;SDS011;53462;39.616;8.824;2022-12-18T07:42:03;10.38;;;5.50;;
66607;SDS011;53462;39.616;8.824;2022-12-18T07:44:47;12.50;;;6.93;;
66607;SDS011;53462;39.616;8.824;2022-12-18T07:47:13;18.02;;;10.07;;
66607;SDS011;53462;39.616;8.824;2022-12-18T07:49:39;17.15;;;11.15;;
66607;SDS011;53462;39.616;8.824;2022-12-18T07:52:05;7.85;;;4.90;;
66607;SDS011;53462;39.616;8.824;2022-12-18T07:54:31;7.38;;;4.70;;
66607;SDS011;53462;39.616;8.824;2022-12-18T07:56:57;8.98;;;4.88;;
66607;SDS011;53462;39.616;8.824;2022-12-18T07:59:22;9.63;;;5.00;;
66607;SDS011;53462;39.616;8.824;2022-12-18T08:01:48;5.63;;;4.00;;
66607;SDS011;53462;39.616;8.824;2022-12-18T08:04:14;6.82;;;4.40;;
66607;SDS011;53462;39.616;8.824;2022-12-18T08:06:40;6.45;;;4.90;;
66607;SDS011;53462;39.616;8.824;2022-12-18T08:09:06;7.40;;;5.30;;
66607;SDS011;53462;39.616;8.824;2022-12-18T08:11:33;9.02;;;6.07;;
66607;SDS011;53462;39.616;8.824;2022-12-18T08:13:59;10.50;;;6.90;;
66607;SDS011;53462;39.616;8.824;2022-12-18T08:16:25;13.43;;;8.45;;
66607;SDS011;53462;39.616;8.824;2022-12-18T08:18:51;16.45;;;8.88;;
66607;SDS011;53462;39.616;8.824;2022-12-18T08:21:19;7.15;;;4.90;;
66607;SDS011;53462;39.616;8.824;2022-12-18T08:23:52;5.03;;;3.00;;
66607;SDS011;53462;39.616;8.824;2022-12-18T08:26:19;6.78;;;5.10;;
66607;SDS011;53462;39.616;8.824;2022-12-18T08:28:46;5.45;;;3.80;;
66607;SDS011;53462;39.616;8.824;2022-12-18T08:31:12;11.50;;;7.38;;
66607;SDS011;53462;39.616;8.824;2022-12-18T08:33:38;17.52;;;11.13;;
66607;SDS011;53462;39.616;8.824;2022-12-18T08:36:05;17.17;;;11.27;;
66607;SDS011;53462;39.616;8.824;2022-12-18T08:38:31;13.85;;;9.73;;
66607;SDS011;53462;39.616;8.824;2022-12-18T08:41:02;11.75;;;8.18;;
66607;SDS011;53462;39.616;8.824;2022-12-18T08:43:29;9.10;;;6.95;;
66607;SDS011;53462;39.616;8.824;2022-12-18T08:46:14;8.00;;;6.25;;
66607;SDS011;53462;39.616;8.824;2022-12-18T08:48:40;3.55;;;2.95;;
66607;SDS011;53462;39.616;8.824;2022-12-18T08:51:06;4.82;;;3.10;;
66607;SDS011;53462;39.616;8.824;2022-12-18T08:53:34;4.88;;;2.50;;
66607;SDS011;53462;39.616;8.824;2022-12-18T08:56:01;4.15;;;2.20;;
66607;SDS011;53462;39.616;8.824;2022-12-18T08:58:27;5.97;;;2.20;;
66607;SDS011;53462;39.616;8.824;2022-12-18T09:00:53;5.15;;;3.40;;
66607;SDS011;53462;39.616;8.824;2022-12-18T09:03:19;4.72;;;2.72;;
66607;SDS011;53462;39.616;8.824;2022-12-18T09:05:47;2.53;;;1.27;;
66607;SDS011;53462;39.616;8.824;2022-12-18T09:08:13;3.13;;;1.30;;
66607;SDS011;53462;39.616;8.824;2022-12-18T09:10:43;3.63;;;1.00;;
66607;SDS011;53462;39.616;8.824;2022-12-18T09:13:13;3.58;;;1.25;;
66607;SDS011;53462;39.616;8.824;2022-12-18T09:15:42;1.85;;;1.10;;
66607;SDS011;53462;39.616;8.824;2022-12-18T09:18:12;2.45;;;1.90;;
66607;SDS011;53462;39.616;8.824;2022-12-18T09:20:39;5.85;;;4.47;;
66607;SDS011;53462;39.616;8.824;2022-12-18T09:23:05;5.28;;;2.38;;
66607;SDS011;53462;39.616;8.824;2022-12-18T09:25:32;1.90;;;1.02;;
66607;SDS011;53462;39.616;8.824;2022-12-18T09:28:04;3.60;;;1.50;;
66607;SDS011;53462;39.616;8.824;2022-12-18T09:30:32;1.77;;;1.08;;
66607;SDS011;53462;39.616;8.824;2022-12-18T09:32:59;1.85;;;1.30;;
66607;SDS011;53462;39.616;8.824;2022-12-18T09:35:25;1.15;;;1.00;;
66607;SDS011;53462;39.616;8.824;2022-12-18T09:37:53;1.85;;;1.20;;
66607;SDS011;53462;39.616;8.824;2022-12-18T09:40:21;3.83;;;1.30;;
66607;SDS011;53462;39.616;8.824;2022-12-18T09:43:00;7.90;;;1.40;;
66607;SDS011;53462;39.616;8.824;2022-12-18T09:45:40;3.67;;;1.23;;
66607;SDS011;53462;39.616;8.824;2022-12-18T09:50:54;11.23;;;8.77;;
66607;SDS011;53462;39.616;8.824;2022-12-18T09:53:26;3.88;;;2.10;;
66607;SDS011;53462;39.616;8.824;2022-12-18T09:55:56;2.83;;;2.40;;
66607;SDS011;53462;39.616;8.824;2022-12-18T10:01:29;4.90;;;2.15;;
66607;SDS011;53462;39.616;8.824;2022-12-18T10:03:56;4.25;;;1.70;;
66607;SDS011;53462;39.616;8.824;2022-12-18T10:06:31;4.47;;;2.47;;
66607;SDS011;53462;39.616;8.824;2022-12-18T10:09:22;5.00;;;1.60;;
66607;SDS011;53462;39.616;8.824;2022-12-18T10:17:33;10.77;;;9.18;;
66607;SDS011;53462;39.616;8.824;2022-12-18T10:20:09;3.70;;;2.77;;
66607;SDS011;53462;39.616;8.824;2022-12-18T10:25:34;4.75;;;1.30;;
66607;SDS011;53462;39.616;8.824;2022-12-18T10:28:12;2.90;;;1.40;;
66607;SDS011;53462;39.616;8.824;2022-12-18T10:30:39;2.42;;;1.40;;
66607;SDS011;53462;39.616;8.824;2022-12-18T10:33:10;2.10;;;1.20;;
66607;SDS011;53462;39.616;8.824;2022-12-18T10:35:39;1.60;;;1.08;;
66607;SDS011;53462;39.616;8.824;2022-12-18T10:43:14;6.78;;;3.90;;
66607;SDS011;53462;39.616;8.824;2022-12-18T10:45:41;3.97;;;1.45;;
66607;SDS011;53462;39.616;8.824;2022-12-18T10:48:21;2.38;;;1.88;;
66607;SDS011;53462;39.616;8.824;2022-12-18T10:50:49;3.03;;;1.75;;
66607;SDS011;53462;39.616;8.824;2022-12-18T10:53:23;2.75;;;1.42;;
66607;SDS011;53462;39.616;8.824;2022-12-18T10:55:53;4.15;;;1.17;;
66607;SDS011;53462;39.616;8.824;2022-12-18T11:01:01;2.10;;;0.90;;
66607;SDS011;53462;39.616;8.824;2022-12-18T11:03:31;2.78;;;1.00;;
66607;SDS011;53462;39.616;8.824;2022-12-18T11:08:36;2.15;;;1.10;;
66607;SDS011;53462;39.616;8.824;2022-12-18T11:11:03;3.22;;;1.02;;
66607;SDS011;53462;39.616;8.824;2022-12-18T11:13:32;2.42;;;1.20;;
66607;SDS011;53462;39.616;8.824;2022-12-18T11:15:58;3.08;;;1.20;;
66607;SDS011;53462;39.616;8.824;2022-12-18T11:18:28;3.17;;;1.42;;
66607;SDS011;53462;39.616;8.824;2022-12-18T11:20:58;3.88;;;2.05;;
66607;SDS011;53462;39.616;8.824;2022-12-18T11:23:30;2.40;;;1.50;;
66607;SDS011;53462;39.616;8.824;2022-12-18T11:25:57;2.90;;;2.20;;
66607;SDS011;53462;39.616;8.824;2022-12-18T11:28:35;5.13;;;1.98;;
66607;SDS011;53462;39.616;8.824;2022-12-18T11:36:21;7.57;;;3.28;;
66607;SDS011;53462;39.616;8.824;2022-12-18T11:38:48;4.47;;;1.85;;
66607;SDS011;53462;39.616;8.824;2022-12-18T11:44:22;3.15;;;1.45;;
66607;SDS011;53462;39.616;8.824;2022-12-18T11:46:56;2.05;;;1.10;;
66607;SDS011;53462;39.616;8.824;2022-12-18T11:54:35;2.85;;;1.02;;
66607;SDS011;53462;39.616;8.824;2022-12-18T12:00:02;2.85;;;1.20;;
66607;SDS011;53462;39.616;8.824;2022-12-18T12:13:26;2.78;;;0.95;;
66607;SDS011;53462;39.616;8.824;2022-12-18T12:21:23;3.78;;;1.90;;
66607;SDS011;53462;39.616;8.824;2022-12-18T12:30:18;3.95;;;2.08;;
66607;SDS011;53462;39.616;8.824;2022-12-18T12:32:51;3.00;;;1.60;;
66607;SDS011;53462;39.616;8.824;2022-12-18T12:38:15;3.83;;;1.77;;
66607;SDS011;53462;39.616;8.824;2022-12-18T12:40:50;2.15;;;1.40;;
66607;SDS011;53462;39.616;8.824;2022-12-18T12:46:12;3.33;;;1.10;;
66607;SDS011;53462;39.616;8.824;2022-12-18T12:48:46;2.20;;;0.73;;
66607;SDS011;53462;39.616;8.824;2022-12-18T12:51:24;1.10;;;0.70;;
66607;SDS011;53462;39.616;8.824;2022-12-18T12:53:50;2.42;;;0.77;;
66607;SDS011;53462;39.616;8.824;2022-12-18T12:56:18;1.88;;;1.00;;
66607;SDS011;53462;39.616;8.824;2022-12-18T12:58:52;2.08;;;1.20;;
66607;SDS011;53462;39.616;8.824;2022-12-18T13:01:41;1.83;;;1.10;;
66607;SDS011;53462;39.616;8.824;2022-12-18T13:07:05;4.72;;;1.80;;
66607;SDS011;53462;39.616;8.824;2022-12-18T13:10:11;2.17;;;1.58;;
66607;SDS011;53462;39.616;8.824;2022-12-18T13:13:04;1.98;;;1.25;;
66607;SDS011;53462;39.616;8.824;2022-12-18T13:15:32;1.40;;;1.13;;
66607;SDS011;53462;39.616;8.824;2022-12-18T13:18:03;1.98;;;1.17;;
66607;SDS011;53462;39.616;8.824;2022-12-18T13:28:17;2.13;;;1.25;;
66607;SDS011;53462;39.616;8.824;2022-12-18T13:30:51;2.90;;;1.00;;
66607;SDS011;53462;39.616;8.824;2022-12-18T13:35:53;2.00;;;1.00;;
66607;SDS011;53462;39.616;8.824;2022-12-18T13:38:33;4.70;;;1.00;;
66607;SDS011;53462;39.616;8.824;2022-12-18T13:41:02;1.80;;;1.00;;
66607;SDS011;53462;39.616;8.824;2022-12-18T13:48:59;1.30;;;1.05;;
66607;SDS011;53462;39.616;8.824;2022-12-18T13:51:46;2.00;;;0.80;;
66607;SDS011;53462;39.616;8.824;2022-12-18T13:54:18;2.35;;;0.98;;
66607;SDS011;53462;39.616;8.824;2022-12-18T13:57:05;1.25;;;0.90;;
66607;SDS011;53462;39.616;8.824;2022-12-18T13:59:50;1.60;;;0.75;;
66607;SDS011;53462;39.616;8.824;2022-12-18T14:02:26;1.35;;;0.80;;
66607;SDS011;53462;39.616;8.824;2022-12-18T14:04:54;5.97;;;3.05;;
66607;SDS011;53462;39.616;8.824;2022-12-18T14:07:27;3.95;;;2.55;;
66607;SDS011;53462;39.616;8.824;2022-12-18T14:09:55;5.35;;;2.13;;
66607;SDS011;53462;39.616;8.824;2022-12-18T14:12:27;3.45;;;1.60;;
66607;SDS011;53462;39.616;8.824;2022-12-18T14:17:42;3.88;;;1.25;;
66607;SDS011;53462;39.616;8.824;2022-12-18T14:20:13;3.00;;;1.00;;
66607;SDS011;53462;39.616;8.824;2022-12-18T14:22:42;1.85;;;1.00;;
66607;SDS011;53462;39.616;8.824;2022-12-18T14:27:50;2.03;;;1.38;;
66607;SDS011;53462;39.616;8.824;2022-12-18T14:30:35;2.70;;;1.20;;
66607;SDS011;53462;39.616;8.824;2022-12-18T14:35:32;5.22;;;2.22;;
66607;SDS011;53462;39.616;8.824;2022-12-18T14:40:56;4.35;;;2.40;;
66607;SDS011;53462;39.616;8.824;2022-12-18T14:43:28;2.78;;;1.83;;
66607;SDS011;53462;39.616;8.824;2022-12-18T14:45:56;3.33;;;2.30;;
66607;SDS011;53462;39.616;8.824;2022-12-18T14:51:02;4.03;;;3.08;;
66607;SDS011;53462;39.616;8.824;2022-12-18T14:53:35;5.65;;;4.15;;
66607;SDS011;53462;39.616;8.824;2022-12-18T14:56:14;8.15;;;4.03;;
66607;SDS011;53462;39.616;8.824;2022-12-18T14:58:47;7.25;;;3.83;;
66607;SDS011;53462;39.616;8.824;2022-12-18T15:01:20;11.85;;;3.50;;
66607;SDS011;53462;39.616;8.824;2022-12-18T15:03:49;5.93;;;3.20;;
66607;SDS011;53462;39.616;8.824;2022-12-18T15:06:37;4.35;;;2.47;;
66607;SDS011;53462;39.616;8.824;2022-12-18T15:09:20;5.75;;;2.80;;
66607;SDS011;53462;39.616;8.824;2022-12-18T15:11:55;5.55;;;3.30;;
66607;SDS011;53462;39.616;8.824;2022-12-18T15:17:14;4.25;;;2.45;;
66607;SDS011;53462;39.616;8.824;2022-12-18T15:19:47;53.10;;;6.68;;
66607;SDS011;53462;39.616;8.824;2022-12-18T15:22:22;4.65;;;2.33;;
66607;SDS011;53462;39.616;8.824;2022-12-18T15:24:48;4.70;;;2.95;;
66607;SDS011;53462;39.616;8.824;2022-12-18T15:32:33;4.75;;;2.15;;
66607;SDS011;53462;39.616;8.824;2022-12-18T15:35:23;4.78;;;2.58;;
66607;SDS011;53462;39.616;8.824;2022-12-18T15:37:49;3.35;;;2.28;;
66607;SDS011;53462;39.616;8.824;2022-12-18T15:40:17;5.25;;;2.80;;
66607;SDS011;53462;39.616;8.824;2022-12-18T15:42:44;4.20;;;3.00;;
66607;SDS011;53462;39.616;8.824;2022-12-18T15:45:30;7.22;;;4.43;;
66607;SDS011;53462;39.616;8.824;2022-12-18T15:47:56;7.63;;;4.90;;
66607;SDS011;53462;39.616;8.824;2022-12-18T15:50:22;8.10;;;5.38;;
66607;SDS011;53462;39.616;8.824;2022-12-18T15:52:48;8.82;;;6.03;;
66607;SDS011;53462;39.616;8.824;2022-12-18T15:55:20;11.57;;;6.05;;
66607;SDS011;53462;39.616;8.824;2022-12-18T15:58:06;11.18;;;6.32;;
66607;SDS011;53462;39.616;8.824;2022-12-18T16:00:34;8.63;;;5.53;;
66607;SDS011;53462;39.616;8.824;2022-12-18T16:03:02;8.65;;;6.13;;
66607;SDS011;53462;39.616;8.824;2022-12-18T16:05:28;13.32;;;7.70;;
66607;SDS011;53462;39.616;8.824;2022-12-18T16:07:55;13.48;;;7.32;;
66607;SDS011;53462;39.616;8.824;2022-12-18T16:10:21;11.85;;;7.30;;
66607;SDS011;53462;39.616;8.824;2022-12-18T16:12:48;12.50;;;7.50;;
66607;SDS011;53462;39.616;8.824;2022-12-18T16:15:14;11.02;;;6.45;;
66607;SDS011;53462;39.616;8.824;2022-12-18T16:17:41;14.35;;;8.63;;
66607;SDS011;53462;39.616;8.824;2022-12-18T16:20:15;20.25;;;11.50;;
66607;SDS011;53462;39.616;8.824;2022-12-18T16:22:43;26.45;;;15.77;;
66607;SDS011;53462;39.616;8.824;2022-12-18T16:25:25;19.77;;;12.00;;
66607;SDS011;53462;39.616;8.824;2022-12-18T16:27:53;15.30;;;9.10;;
66607;SDS011;53462;39.616;8.824;2022-12-18T16:30:21;11.73;;;8.32;;
66607;SDS011;53462;39.616;8.824;2022-12-18T16:32:56;10.32;;;7.75;;
66607;SDS011;53462;39.616;8.824;2022-12-18T16:35:23;11.77;;;8.45;;
66607;SDS011;53462;39.616;8.824;2022-12-18T16:37:49;12.73;;;8.75;;
66607;SDS011;53462;39.616;8.824;2022-12-18T16:40:16;27.55;;;18.05;;
66607;SDS011;53462;39.616;8.824;2022-12-18T16:42:42;24.38;;;15.63;;
66607;SDS011;53462;39.616;8.824;2022-12-18T16:45:11;25.40;;;17.15;;
66607;SDS011;53462;39.616;8.824;2022-12-18T16:47:39;23.10;;;15.10;;
66607;SDS011;53462;39.616;8.824;2022-12-18T16:50:06;26.25;;;17.33;;
66607;SDS011;53462;39.616;8.824;2022-12-18T16:52:33;19.55;;;14.18;;
66607;SDS011;53462;39.616;8.824;2022-12-18T16:54:59;15.77;;;10.85;;
66607;SDS011;53462;39.616;8.824;2022-12-18T16:57:25;15.90;;;10.95;;
66607;SDS011;53462;39.616;8.824;2022-12-18T16:59:51;18.70;;;11.65;;
66607;SDS011;53462;39.616;8.824;2022-12-18T17:02:21;24.55;;;14.82;;
66607;SDS011;53462;39.616;8.824;2022-12-18T17:04:48;50.05;;;24.33;;
66607;SDS011;53462;39.616;8.824;2022-12-18T17:07:14;17.33;;;8.27;;
66607;SDS011;53462;39.616;8.824;2022-12-18T17:09:41;9.50;;;5.85;;
66607;SDS011;53462;39.616;8.824;2022-12-18T17:12:07;25.50;;;16.30;;
66607;SDS011;53462;39.616;8.824;2022-12-18T17:14:33;23.90;;;15.60;;
66607;SDS011;53462;39.616;8.824;2022-12-18T17:17:01;58.40;;;37.55;;
66607;SDS011;53462;39.616;8.824;2022-12-18T17:19:27;59.58;;;33.17;;